createdAt,value
2023-04-22T00:00:24.942Z,13.50
2023-04-22T00:02:52.909Z,13.50
2023-04-22T00:05:21.016Z,13.50
2023-04-22T00:07:49.377Z,13.50
2023-04-22T00:10:16.678Z,13.50
2023-04-22T00:12:44.372Z,13.50
2023-04-22T00:15:11.997Z,13.50
2023-04-22T00:17:40.594Z,13.40
2023-04-22T00:20:11.408Z,13.40
2023-04-22T00:22:38.860Z,13.40
2023-04-22T00:25:07.288Z,13.30
2023-04-22T00:27:35.620Z,13.30
2023-04-22T00:30:03.195Z,13.30
2023-04-22T00:32:30.742Z,13.30
2023-04-22T00:34:58.448Z,13.30
2023-04-22T00:37:26.327Z,13.30
2023-04-22T00:39:53.904Z,13.30
2023-04-22T00:42:22.296Z,13.30
2023-04-22T00:44:51.524Z,13.30
2023-04-22T00:47:19.949Z,13.30
2023-04-22T00:49:49.648Z,13.30
2023-04-22T00:52:17.104Z,13.30
2023-04-22T00:54:44.810Z,13.20
2023-04-22T00:57:12.535Z,13.20
2023-04-22T00:59:40.304Z,13.20
2023-04-22T01:02:08.339Z,13.20
2023-04-22T01:04:36.995Z,13.20
2023-04-22T01:07:04.395Z,13.20
2023-04-22T01:09:31.664Z,13.20
2023-04-22T01:11:59.181Z,13.20
2023-04-22T01:14:26.723Z,13.20
2023-04-22T01:16:54.454Z,13.20
2023-04-22T01:19:22.155Z,13.10
2023-04-22T01:21:51.843Z,13.10
2023-04-22T01:24:19.714Z,13.10
2023-04-22T01:26:48.255Z,13.00
2023-04-22T01:29:16.437Z,13.00
2023-04-22T01:31:44.635Z,13.00
2023-04-22T01:34:12.387Z,12.90
2023-04-22T01:36:39.882Z,12.90
2023-04-22T01:39:08.189Z,12.90
2023-04-22T01:41:36.025Z,12.90
2023-04-22T01:44:05.042Z,12.90
2023-04-22T01:46:34.030Z,12.90
2023-04-22T01:49:01.486Z,12.90
2023-04-22T01:51:28.917Z,12.90
2023-04-22T01:53:57.042Z,12.90
2023-04-22T01:56:24.629Z,12.90
2023-04-22T01:58:52.156Z,12.90
2023-04-22T02:01:20.355Z,12.90
2023-04-22T02:03:48.061Z,12.90
2023-04-22T02:06:15.394Z,12.90
2023-04-22T02:08:42.857Z,12.80
2023-04-22T02:11:10.264Z,12.80
2023-04-22T02:13:39.164Z,12.80
2023-04-22T02:16:07.671Z,12.80
2023-04-22T02:18:35.508Z,12.80
2023-04-22T02:21:03.278Z,12.80
2023-04-22T02:23:31.367Z,12.80
2023-04-22T02:25:58.879Z,12.80
2023-04-22T02:28:26.231Z,12.80
2023-04-22T02:30:53.696Z,12.80
2023-04-22T02:33:23.468Z,12.80
2023-04-22T02:35:52.137Z,12.80
2023-04-22T02:38:20.234Z,12.80
2023-04-22T02:40:47.780Z,12.80
2023-04-22T02:43:15.135Z,12.70
2023-04-22T02:45:42.433Z,12.70
2023-04-22T02:48:10.123Z,12.60
2023-04-22T02:50:37.689Z,12.60
2023-04-22T02:53:05.320Z,12.50
2023-04-22T02:55:32.822Z,12.50
2023-04-22T02:58:00.314Z,12.50
2023-04-22T03:00:27.762Z,12.40
2023-04-22T03:02:56.074Z,12.40
2023-04-22T03:05:30.206Z,12.40
2023-04-22T03:07:57.761Z,12.50
2023-04-22T03:10:25.010Z,12.50
2023-04-22T03:12:52.473Z,12.50
2023-04-22T03:15:21.997Z,12.40
2023-04-22T03:17:49.854Z,12.50
2023-04-22T03:20:19.777Z,12.50
2023-04-22T03:22:48.017Z,12.40
2023-04-22T03:25:16.746Z,12.40
2023-04-22T03:27:50.285Z,12.40
2023-04-22T03:30:18.949Z,12.30
2023-04-22T03:32:47.653Z,12.30
2023-04-22T03:35:21.182Z,12.30
2023-04-22T03:37:50.895Z,12.30
2023-04-22T03:40:23.263Z,12.30
2023-04-22T03:42:50.698Z,12.20
2023-04-22T03:45:20.789Z,12.20
2023-04-22T03:47:56.873Z,12.20
2023-04-22T03:50:33.696Z,12.20
2023-04-22T03:53:02.529Z,12.20
2023-04-22T03:55:30.133Z,12.20
2023-04-22T03:57:57.512Z,12.20
2023-04-22T04:00:25.182Z,12.20
2023-04-22T04:03:05.068Z,12.20
2023-04-22T04:05:32.791Z,12.20
2023-04-22T04:08:00.373Z,12.20
2023-04-22T04:10:27.792Z,12.30
2023-04-22T04:12:58.298Z,12.30
2023-04-22T04:15:27.226Z,12.30
2023-04-22T04:17:57.079Z,12.20
2023-04-22T04:20:26.904Z,12.20
2023-04-22T04:22:54.347Z,12.20
2023-04-22T04:25:21.838Z,12.20
2023-04-22T04:27:51.998Z,12.20
2023-04-22T04:30:21.662Z,12.20
2023-04-22T04:32:54.298Z,12.20
2023-04-22T04:35:22.056Z,12.20
2023-04-22T04:37:54.119Z,12.20
2023-04-22T04:40:22.200Z,12.20
2023-04-22T04:43:04.489Z,12.20
2023-04-22T04:45:37.952Z,12.20
2023-04-22T04:48:09.584Z,12.30
2023-04-22T04:50:44.424Z,12.30
2023-04-22T04:53:12.805Z,12.40
2023-04-22T04:55:42.919Z,12.50
2023-04-22T04:58:18.263Z,12.60
2023-04-22T05:00:47.399Z,12.70
2023-04-22T05:03:16.690Z,12.70
2023-04-22T05:05:46.756Z,12.80
2023-04-22T05:08:14.355Z,12.90
2023-04-22T05:10:43.163Z,13.00
2023-04-22T05:13:11.139Z,13.20
2023-04-22T05:15:41.400Z,13.30
2023-04-22T05:18:09.154Z,13.30
2023-04-22T05:20:36.512Z,13.40
2023-04-22T05:23:05.106Z,13.50
2023-04-22T05:25:32.580Z,13.50
2023-04-22T05:28:05.862Z,13.60
2023-04-22T05:30:40.673Z,13.70
2023-04-22T05:33:09.145Z,13.80
2023-04-22T05:35:37.659Z,13.90
2023-04-22T05:38:05.101Z,14.00
2023-04-22T05:40:33.805Z,14.10
2023-04-22T05:43:03.047Z,14.20
2023-04-22T05:45:30.472Z,14.30
2023-04-22T05:47:58.603Z,14.50
2023-04-22T05:50:31.091Z,14.60
2023-04-22T05:53:05.946Z,14.60
2023-04-22T05:55:33.684Z,14.70
2023-04-22T05:58:02.158Z,14.70
2023-04-22T06:00:50.779Z,14.80
2023-04-22T06:03:36.685Z,15.00
2023-04-22T06:06:05.273Z,15.10
2023-04-22T06:08:32.775Z,15.10
2023-04-22T06:11:00.339Z,15.20
2023-04-22T06:13:30.985Z,15.30
2023-04-22T06:15:58.660Z,15.40
2023-04-22T06:18:28.035Z,15.50
2023-04-22T06:20:56.136Z,15.70
2023-04-22T06:23:23.811Z,15.60
2023-04-22T06:25:51.266Z,15.80
2023-04-22T06:28:18.766Z,15.90
2023-04-22T06:30:48.234Z,16.10
2023-04-22T06:33:16.829Z,16.20
2023-04-22T06:35:44.337Z,16.30
2023-04-22T06:38:11.894Z,16.40
2023-04-22T06:40:56.073Z,16.50
2023-04-22T06:43:27.508Z,16.60
2023-04-22T06:46:18.589Z,16.70
2023-04-22T06:48:52.341Z,16.80
2023-04-22T06:51:26.158Z,16.80
2023-04-22T06:53:53.769Z,17.00
2023-04-22T06:56:21.173Z,17.10
2023-04-22T06:58:48.597Z,17.10
2023-04-22T07:01:16.204Z,17.20
2023-04-22T07:03:43.727Z,17.40
2023-04-22T07:06:15.142Z,17.40
2023-04-22T07:08:43.122Z,17.40
2023-04-22T07:11:13.183Z,17.10
2023-04-22T07:14:17.349Z,17.20
2023-04-22T07:16:45.228Z,17.30
2023-04-22T07:19:12.734Z,17.50
2023-04-22T07:21:40.157Z,17.40
2023-04-22T07:24:12.109Z,17.50
2023-04-22T07:26:40.518Z,17.60
2023-04-22T07:29:07.975Z,17.90
2023-04-22T07:31:38.846Z,17.90
2023-04-22T07:34:06.488Z,17.80
2023-04-22T07:36:33.955Z,17.80
2023-04-22T07:39:01.470Z,17.80
2023-04-22T07:41:28.922Z,17.70
2023-04-22T07:43:56.298Z,17.70
2023-04-22T07:46:24.110Z,17.70
2023-04-22T07:48:51.639Z,17.80
2023-04-22T07:51:18.998Z,17.90
2023-04-22T07:53:46.274Z,17.90
2023-04-22T07:56:14.189Z,17.80
2023-04-22T07:58:41.530Z,17.50
2023-04-22T08:01:08.934Z,17.60
2023-04-22T08:03:36.524Z,17.80
2023-04-22T08:06:04.180Z,18.00
2023-04-22T08:08:31.896Z,18.00
2023-04-22T08:10:59.370Z,18.00
2023-04-22T08:13:26.643Z,18.00
2023-04-22T08:15:54.238Z,18.10
2023-04-22T08:18:21.503Z,18.10
2023-04-22T08:20:49.313Z,18.30
2023-04-22T08:23:16.614Z,18.30
2023-04-22T08:25:43.964Z,18.10
2023-04-22T08:28:12.038Z,18.20
2023-04-22T08:30:39.390Z,18.30
2023-04-22T08:33:07.150Z,18.20
2023-04-22T08:35:37.814Z,18.30
2023-04-22T08:38:05.282Z,18.30
2023-04-22T08:40:32.586Z,18.40
2023-04-22T08:42:59.882Z,18.50
2023-04-22T08:45:27.354Z,18.50
2023-04-22T08:47:55.120Z,18.70
2023-04-22T08:50:22.942Z,18.80
2023-04-22T08:52:50.339Z,18.80
2023-04-22T08:55:17.986Z,18.80
2023-04-22T08:57:46.315Z,18.70
2023-04-22T09:00:14.410Z,18.80
2023-04-22T09:02:47.390Z,18.80
2023-04-22T09:05:15.797Z,18.50
2023-04-22T09:07:43.622Z,18.60
2023-04-22T09:10:12.184Z,18.80
2023-04-22T09:12:41.008Z,19.00
2023-04-22T09:15:09.985Z,19.10
2023-04-22T09:17:39.464Z,19.10
2023-04-22T09:20:09.098Z,19.20
2023-04-22T09:22:43.254Z,19.30
2023-04-22T09:25:21.112Z,19.50
2023-04-22T09:27:57.553Z,19.40
2023-04-22T09:30:32.106Z,19.20
2023-04-22T09:33:01.224Z,19.40
2023-04-22T09:35:33.119Z,19.40
2023-04-22T09:38:02.256Z,19.40
2023-04-22T09:40:31.684Z,19.70
2023-04-22T09:43:02.223Z,19.50
2023-04-22T09:45:35.236Z,19.60
2023-04-22T09:48:10.216Z,19.60
2023-04-22T09:50:40.126Z,19.80
2023-04-22T09:53:10.138Z,19.80
2023-04-22T09:55:40.636Z,19.90
2023-04-22T09:58:10.932Z,20.00
2023-04-22T10:00:43.853Z,20.00
2023-04-22T10:03:11.615Z,20.00
2023-04-22T10:05:39.903Z,19.90
2023-04-22T10:08:11.032Z,19.90
2023-04-22T10:10:39.281Z,19.80
2023-04-22T10:13:07.686Z,19.90
2023-04-22T10:15:46.147Z,20.00
2023-04-22T10:18:19.956Z,19.90
2023-04-22T10:20:48.680Z,20.00
2023-04-22T10:23:28.366Z,19.90
2023-04-22T10:25:56.785Z,19.70
2023-04-22T10:28:27.923Z,19.90
2023-04-22T10:30:55.674Z,19.80
2023-04-22T10:33:29.113Z,20.00
2023-04-22T10:36:14.946Z,20.20
2023-04-22T10:39:02.332Z,20.30
2023-04-22T10:41:33.191Z,19.90
2023-04-22T10:44:03.322Z,19.90
2023-04-22T10:46:44.550Z,20.00
2023-04-22T10:49:22.243Z,20.10
2023-04-22T10:52:04.123Z,19.90
2023-04-22T10:54:40.248Z,20.10
2023-04-22T10:57:19.463Z,20.40
2023-04-22T10:59:56.267Z,20.70
2023-04-22T11:02:28.401Z,20.80
2023-04-22T11:05:27.569Z,21.00
2023-04-22T11:08:01.898Z,21.70
2023-04-22T11:10:44.610Z,21.90
2023-04-22T11:13:22.730Z,21.50
2023-04-22T11:15:51.939Z,21.70
2023-04-22T11:18:22.445Z,21.80
2023-04-22T11:20:50.937Z,22.10
2023-04-22T11:23:28.981Z,22.00
2023-04-22T11:26:00.726Z,22.30
2023-04-22T11:28:28.659Z,22.10
2023-04-22T11:31:07.102Z,22.10
2023-04-22T11:33:43.292Z,21.90
2023-04-22T11:36:22.855Z,21.50
2023-04-22T11:38:57.035Z,21.90
2023-04-22T11:41:24.555Z,22.40
2023-04-22T11:43:52.215Z,22.00
2023-04-22T11:46:32.090Z,21.60
2023-04-22T11:49:18.104Z,21.90
2023-04-22T11:51:56.770Z,22.10
2023-04-22T11:54:35.195Z,22.60
2023-04-22T11:57:12.016Z,22.80
2023-04-22T11:59:39.580Z,22.50
2023-04-22T12:02:08.148Z,23.00
2023-04-22T12:04:40.283Z,23.40
2023-04-22T12:07:08.323Z,23.60
2023-04-22T12:09:35.731Z,22.90
2023-04-22T12:12:06.280Z,23.10
2023-04-22T12:14:36.420Z,23.50
2023-04-22T12:17:05.923Z,24.10
2023-04-22T12:19:33.424Z,24.40
2023-04-22T12:22:01.313Z,24.70
2023-04-22T12:24:31.176Z,24.40
2023-04-22T12:27:01.576Z,23.90
2023-04-22T12:29:33.811Z,23.50
2023-04-22T12:32:01.491Z,23.10
2023-04-22T12:34:28.861Z,23.20
2023-04-22T12:36:57.821Z,24.00
2023-04-22T12:39:25.314Z,23.90
2023-04-22T12:41:54.422Z,23.90
2023-04-22T12:44:24.486Z,24.60
2023-04-22T12:46:52.892Z,25.10
2023-04-22T12:49:20.639Z,24.50
2023-04-22T12:51:51.502Z,25.00
2023-04-22T12:54:24.669Z,25.20
2023-04-22T12:56:52.343Z,25.60
2023-04-22T12:59:20.155Z,25.10
2023-04-22T13:01:48.114Z,24.20
2023-04-22T13:04:20.081Z,24.20
2023-04-22T13:06:47.872Z,24.00
2023-04-22T13:09:15.359Z,24.10
2023-04-22T13:11:42.718Z,24.00
2023-04-22T13:14:17.670Z,24.60
2023-04-22T13:16:45.700Z,24.50
2023-04-22T13:19:19.820Z,24.30
2023-04-22T13:21:49.532Z,24.20
2023-04-22T13:24:21.670Z,24.40
2023-04-22T13:26:51.334Z,24.40
2023-04-22T13:29:23.204Z,24.40
2023-04-22T13:31:50.837Z,22.90
2023-04-22T13:34:19.896Z,22.30
2023-04-22T13:36:47.482Z,22.00
2023-04-22T13:39:15.039Z,21.80
2023-04-22T13:41:43.478Z,21.70
2023-04-22T13:44:14.525Z,21.00
2023-04-22T13:46:49.650Z,20.90
2023-04-22T13:49:17.276Z,20.90
2023-04-22T13:51:44.512Z,20.70
2023-04-22T13:54:12.183Z,20.70
2023-04-22T13:56:39.469Z,20.60
2023-04-22T13:59:10.077Z,20.80
2023-04-22T14:01:38.786Z,21.00
2023-04-22T14:04:07.681Z,21.10
2023-04-22T14:06:48.637Z,21.30
2023-04-22T14:09:18.643Z,21.00
2023-04-22T14:11:45.956Z,20.80
2023-04-22T14:14:13.407Z,21.10
2023-04-22T14:16:40.653Z,21.40
2023-04-22T14:19:09.172Z,21.40
2023-04-22T14:21:36.817Z,21.10
2023-04-22T14:24:05.419Z,21.20
2023-04-22T14:26:35.142Z,20.70
2023-04-22T14:29:02.649Z,20.50
2023-04-22T14:31:30.020Z,20.60
2023-04-22T14:34:01.082Z,20.50
2023-04-22T14:36:28.562Z,20.40
2023-04-22T14:38:56.622Z,20.50
2023-04-22T14:41:24.315Z,20.30
2023-04-22T14:43:51.744Z,20.20
2023-04-22T14:46:19.258Z,20.30
2023-04-22T14:48:46.703Z,20.40
2023-04-22T14:51:13.989Z,20.50
2023-04-22T14:53:42.001Z,20.00
2023-04-22T14:56:12.167Z,20.00
2023-04-22T14:58:39.834Z,20.10
2023-04-22T15:01:07.687Z,20.10
2023-04-22T15:03:36.162Z,20.10
2023-04-22T15:06:04.183Z,20.30
2023-04-22T15:08:31.520Z,20.40
2023-04-22T15:11:00.094Z,20.30
2023-04-22T15:13:27.641Z,20.20
2023-04-22T15:15:58.423Z,20.10
2023-04-22T15:18:27.210Z,20.30
2023-04-22T15:20:57.616Z,20.40
2023-04-22T15:23:25.108Z,20.40
2023-04-22T15:25:53.795Z,20.00
2023-04-22T15:28:21.252Z,19.80
2023-04-22T15:30:50.428Z,19.50
2023-04-22T15:33:17.957Z,19.60
2023-04-22T15:35:47.826Z,19.60
2023-04-22T15:38:15.220Z,19.70
2023-04-22T15:40:42.966Z,19.80
2023-04-22T15:43:11.219Z,19.80
2023-04-22T15:45:38.640Z,19.70
2023-04-22T15:48:06.123Z,19.70
2023-04-22T15:50:33.701Z,19.80
2023-04-22T15:53:01.601Z,19.80
2023-04-22T15:55:28.962Z,19.70
2023-04-22T15:57:56.329Z,19.70
2023-04-22T16:00:23.935Z,19.50
2023-04-22T16:02:55.987Z,19.50
2023-04-22T16:05:25.165Z,19.50
2023-04-22T16:07:56.081Z,19.40
2023-04-22T16:10:26.354Z,19.40
2023-04-22T16:12:53.690Z,19.30
2023-04-22T16:15:23.439Z,19.20
2023-04-22T16:17:51.161Z,19.00
2023-04-22T16:20:18.738Z,18.90
2023-04-22T16:22:46.104Z,18.90
2023-04-22T16:25:13.527Z,18.80
2023-04-22T16:27:40.827Z,18.90
2023-04-22T16:30:09.005Z,18.90
2023-04-22T16:32:36.490Z,18.90
2023-04-22T16:35:04.681Z,18.80
2023-04-22T16:37:32.345Z,18.80
2023-04-22T16:39:59.813Z,18.70
2023-04-22T16:42:27.776Z,18.60
2023-04-22T16:44:55.381Z,18.60
2023-04-22T16:47:22.873Z,18.60
2023-04-22T16:49:50.914Z,18.60
2023-04-22T16:52:18.547Z,18.60
2023-04-22T16:54:46.015Z,18.60
2023-04-22T16:57:13.379Z,18.60
2023-04-22T16:59:40.967Z,18.50
2023-04-22T17:02:09.462Z,18.40
2023-04-22T17:04:36.930Z,18.30
2023-04-22T17:07:04.346Z,18.30
2023-04-22T17:09:33.306Z,18.20
2023-04-22T17:12:01.744Z,18.20
2023-04-22T17:14:29.137Z,18.20
2023-04-22T17:16:56.350Z,18.10
2023-04-22T17:19:24.629Z,18.00
2023-04-22T17:21:52.091Z,18.00
2023-04-22T17:24:21.122Z,18.00
2023-04-22T17:26:49.438Z,17.90
2023-04-22T17:29:16.751Z,17.80
2023-04-22T17:31:44.042Z,17.80
2023-04-22T17:34:11.548Z,17.80
2023-04-22T17:36:38.868Z,17.70
2023-04-22T17:39:06.257Z,17.70
2023-04-22T17:41:33.590Z,17.60
2023-04-22T17:44:01.420Z,17.50
2023-04-22T17:46:28.787Z,17.40
2023-04-22T17:48:56.160Z,17.40
2023-04-22T17:51:23.471Z,17.40
2023-04-22T17:53:51.073Z,17.30
2023-04-22T17:56:18.275Z,17.30
2023-04-22T17:58:45.871Z,17.30
2023-04-22T18:01:13.603Z,17.20
2023-04-22T18:03:42.102Z,17.20
2023-04-22T18:06:09.709Z,17.20
2023-04-22T18:08:37.054Z,17.20
2023-04-22T18:11:05.271Z,17.10
2023-04-22T18:13:33.181Z,17.10
2023-04-22T18:16:00.567Z,17.10
2023-04-22T18:18:28.340Z,17.00
2023-04-22T18:20:55.626Z,17.00
2023-04-22T18:23:23.024Z,17.00
2023-04-22T18:25:50.286Z,17.00
2023-04-22T18:28:17.701Z,16.90
2023-04-22T18:30:44.967Z,16.90
2023-04-22T18:33:12.444Z,16.90
2023-04-22T18:35:39.777Z,16.90
2023-04-22T18:38:07.101Z,16.90
2023-04-22T18:40:34.694Z,16.90
2023-04-22T18:43:01.991Z,16.90
2023-04-22T18:45:30.602Z,16.90
2023-04-22T18:47:59.125Z,16.90
2023-04-22T18:50:26.688Z,16.90
2023-04-22T18:52:53.954Z,16.90
2023-04-22T18:55:21.266Z,16.80
2023-04-22T18:57:48.645Z,16.80
2023-04-22T19:00:16.646Z,16.80
2023-04-22T19:02:46.056Z,16.80
2023-04-22T19:05:14.813Z,16.80
2023-04-22T19:07:44.485Z,16.70
2023-04-22T19:10:12.690Z,16.70
2023-04-22T19:12:40.064Z,16.70
2023-04-22T19:15:08.215Z,16.70
2023-04-22T19:17:35.497Z,16.60
2023-04-22T19:20:02.848Z,16.60
2023-04-22T19:22:30.113Z,16.60
2023-04-22T19:25:01.170Z,16.60
2023-04-22T19:27:28.761Z,16.60
2023-04-22T19:29:56.173Z,16.60
2023-04-22T19:32:23.521Z,16.60
2023-04-22T19:34:50.890Z,16.50
2023-04-22T19:37:18.423Z,16.50
2023-04-22T19:39:45.759Z,16.50
2023-04-22T19:42:13.302Z,16.50
2023-04-22T19:44:43.179Z,16.50
2023-04-22T19:47:10.657Z,16.50
2023-04-22T19:49:39.129Z,16.50
2023-04-22T19:52:09.734Z,16.40
2023-04-22T19:54:39.631Z,16.40
2023-04-22T19:57:07.623Z,16.40
2023-04-22T19:59:35.322Z,16.40
2023-04-22T20:02:02.885Z,16.50
2023-04-22T20:04:30.717Z,16.50
2023-04-22T20:07:00.769Z,16.50
2023-04-22T20:09:32.978Z,16.60
2023-04-22T20:12:00.586Z,16.70
2023-04-22T20:14:28.771Z,16.70
2023-04-22T20:16:56.238Z,16.70
2023-04-22T20:19:23.815Z,16.70
2023-04-22T20:21:53.408Z,16.80
2023-04-22T20:24:21.335Z,16.70
2023-04-22T20:26:49.775Z,16.70
2023-04-22T20:29:18.363Z,16.70
2023-04-22T20:31:46.671Z,16.60
2023-04-22T20:34:14.171Z,16.60
2023-04-22T20:36:42.191Z,16.50
2023-04-22T20:39:14.409Z,16.50
2023-04-22T20:41:42.223Z,16.50
2023-04-22T20:44:09.664Z,16.50
2023-04-22T20:46:37.696Z,16.50
2023-04-22T20:49:05.039Z,16.50
2023-04-22T20:51:32.386Z,16.50
2023-04-22T20:54:04.746Z,16.50
2023-04-22T20:56:32.627Z,16.60
2023-04-22T20:59:00.047Z,16.50
2023-04-22T21:01:27.745Z,16.50
2023-04-22T21:03:57.778Z,16.50
2023-04-22T21:06:28.254Z,16.50
2023-04-22T21:08:58.646Z,16.40
2023-04-22T21:11:26.652Z,16.40
2023-04-22T21:13:54.496Z,16.30
2023-04-22T21:16:26.831Z,16.30
2023-04-22T21:18:58.391Z,16.30
2023-04-22T21:21:34.150Z,16.30
2023-04-22T21:24:02.631Z,16.20
2023-04-22T21:26:30.437Z,16.10
2023-04-22T21:28:58.882Z,16.00
2023-04-22T21:31:27.711Z,16.00
2023-04-22T21:33:55.477Z,15.90
2023-04-22T21:36:22.904Z,15.90
2023-04-22T21:38:50.452Z,15.90
2023-04-22T21:41:17.872Z,15.80
2023-04-22T21:43:45.363Z,15.80
2023-04-22T21:46:12.662Z,15.70
2023-04-22T21:48:40.219Z,15.70
2023-04-22T21:51:07.631Z,15.70
2023-04-22T21:53:35.284Z,15.60
2023-04-22T21:56:02.603Z,15.60
2023-04-22T21:58:29.864Z,15.50
2023-04-22T22:00:58.260Z,15.40
2023-04-22T22:03:25.799Z,15.40
2023-04-22T22:05:53.174Z,15.40
2023-04-22T22:08:20.827Z,15.40
2023-04-22T22:10:48.621Z,15.40
2023-04-22T22:13:15.942Z,15.30
2023-04-22T22:15:43.289Z,15.30
2023-04-22T22:18:10.473Z,15.20
2023-04-22T22:20:37.831Z,15.20
2023-04-22T22:23:05.235Z,15.20
2023-04-22T22:25:32.580Z,15.10
2023-04-22T22:27:59.889Z,15.10
2023-04-22T22:30:27.271Z,15.10
2023-04-22T22:32:54.661Z,15.10
2023-04-22T22:35:22.023Z,15.10
2023-04-22T22:37:49.398Z,15.00
2023-04-22T22:40:16.716Z,15.10
2023-04-22T22:42:43.919Z,15.10
2023-04-22T22:45:11.915Z,15.10
2023-04-22T22:47:39.372Z,15.10
2023-04-22T22:50:07.727Z,15.10
2023-04-22T22:52:35.028Z,15.10
2023-04-22T22:55:02.295Z,15.00
2023-04-22T22:57:29.561Z,15.00
2023-04-22T22:59:56.883Z,15.00
2023-04-22T23:02:24.311Z,15.00
2023-04-22T23:04:51.952Z,15.00
2023-04-22T23:07:19.195Z,14.90
2023-04-22T23:09:46.431Z,14.90
2023-04-22T23:12:13.653Z,14.80
2023-04-22T23:14:41.342Z,14.80
2023-04-22T23:17:08.958Z,14.80
2023-04-22T23:19:36.391Z,14.80
2023-04-22T23:22:06.027Z,14.80
2023-04-22T23:24:33.569Z,14.70
2023-04-22T23:27:01.969Z,14.70
2023-04-22T23:29:29.685Z,14.70
2023-04-22T23:31:57.974Z,14.70
2023-04-22T23:34:25.976Z,14.70
2023-04-22T23:36:54.234Z,14.70
2023-04-22T23:39:21.624Z,14.70
2023-04-22T23:41:48.891Z,14.70
2023-04-22T23:44:16.238Z,14.70
2023-04-22T23:46:43.640Z,14.70
2023-04-22T23:49:11.225Z,14.70
2023-04-22T23:51:38.903Z,14.70
2023-04-22T23:54:06.434Z,14.70
2023-04-22T23:56:34.137Z,14.70
2023-04-22T23:59:01.581Z,14.60
